Change the Weather History Date:

Saturday, July 5, 2014

  Actual Average Record
Temperature  
Mean Temperature 74 °F -  
Max Temperature 84 °F 84 °F 98 °F (1977)
Min Temperature 64 °F 59 °F 42 °F (1972)
Cooling Degree Days 9    
Growing Degree Days 24 (Base 50)    
Moisture  
Dew Point 67 °F    
Average Humidity 80    
Maximum Humidity 100    
Minimum Humidity 61    
Precipitation  
Precipitation 0.03 in - - ()
Sea Level Pressure  
Sea Level Pressure 29.97 in    
Wind  
Wind Speed 13 mph (SSE)    
Max Wind Speed 20 mph    
Max Gust Speed 29 mph    
Visibility 10 miles    
Events      
Averages and records for this station are not official NWS values.
T = Trace of Precipitation, MM = Missing Value Source: NWS Daily Summary

Daily Weather History Graph

Daily Weather History Graph

Search for Another Location

Airport or City:

Trip Planner

Search our weather history database for the weather conditions in past years. The results will help you decide how hot, cold, wet, or windy it might be!

Date:

Astronomy

Jul. 05, 2014 Rise Set
Actual Time 5:49 AM CDT 9:06 PM CDT
Civil Twilight 5:14 AM CDT 9:41 PM CDT
Nautical Twilight 4:29 AM CDT 10:26 PM CDT
Astronomical Twilight 3:33 AM CDT 11:21 PM CDT
Moon 1:58 PM CDT (7/5) 12:46 AM CDT (7/5)
Length of Visible Light 16h 26m
Length of Day
15h 16m
First Quarter, 52% of the Moon is Illuminated
Jul 5
First Quarter
Jul 12
Full
Jul 18
Last Quarter
Jul 26
New
Aug 3
First Quarter

Hourly Weather History & Observations

Time (CDT) Temp. Heat Index Dew Point Humidity Pressure Visibility Wind Dir Wind Speed Gust Speed Precip Events Conditions
12:15 AM 71.6 °F - 64.4 °F 78% 30.11 in 10.0 mi SSE 16.1 mph - N/A   Overcast
12:35 AM 69.8 °F - 62.6 °F 78% 30.10 in 10.0 mi SSE 13.8 mph 20.7 mph N/A   Overcast
12:55 AM 69.8 °F - 62.6 °F 78% 30.10 in 10.0 mi SSE 15.0 mph - N/A   Overcast
1:15 AM 69.8 °F - 62.6 °F 78% 30.09 in 10.0 mi SSE 12.7 mph 19.6 mph N/A   Overcast
1:35 AM 69.8 °F - 62.6 °F 78% 30.08 in 10.0 mi SSE 12.7 mph 18.4 mph N/A   Overcast
1:55 AM 68.0 °F - 62.6 °F 83% 30.06 in 10.0 mi SSE 15.0 mph 20.7 mph N/A   Overcast
2:15 AM 68.0 °F - 62.6 °F 83% 30.04 in 10.0 mi SSE 16.1 mph - N/A   Scattered Clouds
2:35 AM 68.0 °F - 62.6 °F 83% 30.01 in 10.0 mi SSE 15.0 mph - N/A   Clear
2:55 AM 68.0 °F - 62.6 °F 83% 30.02 in 10.0 mi SSE 16.1 mph - N/A   Scattered Clouds
3:15 AM 68.0 °F - 60.8 °F 78% 30.01 in 10.0 mi SSE 13.8 mph 25.3 mph N/A   Mostly Cloudy
3:35 AM 68.0 °F - 60.8 °F 78% 30.06 in 10.0 mi SSE 12.7 mph 20.7 mph N/A   Overcast
3:55 AM 68.0 °F - 60.8 °F 78% 30.04 in 10.0 mi South 17.3 mph 24.2 mph N/A   Overcast
4:15 AM 68.0 °F - 60.8 °F 78% 30.04 in 10.0 mi South 16.1 mph - N/A   Mostly Cloudy
4:35 AM 68.0 °F - 60.8 °F 78% 30.02 in 10.0 mi SSE 13.8 mph 21.9 mph N/A   Mostly Cloudy
4:55 AM 68.0 °F - 60.8 °F 78% 30.02 in 10.0 mi SSE 12.7 mph 18.4 mph N/A   Scattered Clouds
5:15 AM 68.0 °F - 60.8 °F 78% 30.04 in 10.0 mi South 16.1 mph - N/A   Overcast
5:35 AM 66.2 °F - 62.6 °F 88% 30.00 in 10.0 mi SSE 17.3 mph 28.8 mph N/A   Overcast
5:55 AM 66.2 °F - 62.6 °F 88% 30.00 in 10.0 mi SSE 15.0 mph - N/A   Overcast
6:15 AM 64.4 °F - 62.6 °F 94% 29.99 in 10.0 mi SSE 12.7 mph 20.7 mph N/A   Overcast
6:35 AM 64.4 °F - 62.6 °F 94% 29.99 in 8.0 mi SE 13.8 mph - N/A   Overcast
6:55 AM 66.2 °F - 62.6 °F 88% 29.97 in 5.0 mi ESE 19.6 mph - 0.03 in   Mostly Cloudy
7:15 AM 66.2 °F - 64.4 °F 94% 30.02 in 10.0 mi WSW 12.7 mph 19.6 mph N/A   Scattered Clouds
7:35 AM 66.2 °F - 64.4 °F 94% 30.02 in - WSW 8.1 mph - N/A   Unknown
7:55 AM 66.2 °F - 64.4 °F 94% 30.01 in 10.0 mi SSW 4.6 mph - N/A   Clear
8:15 AM 66.2 °F - 64.4 °F 94% 30.00 in 10.0 mi SSE 8.1 mph - N/A   Clear
8:35 AM 68.0 °F - 64.4 °F 88% 29.99 in 10.0 mi South 9.2 mph 16.1 mph N/A   Clear
8:55 AM 68.0 °F - 64.4 °F 88% 29.99 in 10.0 mi South 11.5 mph - N/A   Partly Cloudy
9:15 AM 68.0 °F - 64.4 °F 88% 29.99 in 10.0 mi South 12.7 mph - N/A   Mostly Cloudy
9:35 AM 68.0 °F - 64.4 °F 88% 30.00 in 10.0 mi South 12.7 mph - N/A   Overcast
9:55 AM 69.8 °F - 64.4 °F 83% 30.01 in 10.0 mi SSW 10.4 mph 17.3 mph N/A   Overcast
10:15 AM 71.6 °F - 64.4 °F 78% 30.00 in 10.0 mi South 15.0 mph - N/A   Mostly Cloudy
10:35 AM 73.4 °F - 66.2 °F 78% 30.00 in 10.0 mi SSE 12.7 mph - N/A   Clear
10:55 AM 73.4 °F - 66.2 °F 78% 29.99 in 10.0 mi South 10.4 mph 18.4 mph N/A   Clear
11:15 AM 75.2 °F - 66.2 °F 73% 29.99 in 10.0 mi South 16.1 mph - N/A   Clear
11:35 AM 75.2 °F - 68.0 °F 78% 29.98 in 10.0 mi South 13.8 mph - N/A   Partly Cloudy
11:55 AM 75.2 °F - 66.2 °F 73% 29.99 in 10.0 mi South 13.8 mph - N/A   Partly Cloudy
12:15 PM 77.0 °F - 66.2 °F 69% 29.98 in 10.0 mi South 13.8 mph 20.7 mph N/A   Partly Cloudy
12:35 PM 77.0 °F - 66.2 °F 69% 29.98 in 10.0 mi South 13.8 mph 21.9 mph N/A   Clear
12:55 PM 78.8 °F - 66.2 °F 65% 29.98 in 10.0 mi South 16.1 mph 21.9 mph N/A   Clear
1:15 PM 78.8 °F - 66.2 °F 65% 29.98 in 10.0 mi South 16.1 mph 23.0 mph N/A   Clear
1:35 PM 80.6 °F 83.2 °F 68.0 °F 65% 29.97 in 10.0 mi SSE 12.7 mph 18.4 mph N/A   Clear
1:55 PM 80.6 °F 82.7 °F 66.2 °F 61% 29.96 in 10.0 mi SSE 12.7 mph - N/A   Clear
2:15 PM 80.6 °F 83.2 °F 68.0 °F 65% 29.96 in 10.0 mi South 12.7 mph 20.7 mph N/A   Clear
2:35 PM 80.6 °F 83.2 °F 68.0 °F 65% 29.95 in 10.0 mi South 12.7 mph 20.7 mph N/A   Clear
2:55 PM 82.4 °F 86.3 °F 69.8 °F 66% 29.94 in 10.0 mi SSE 15.0 mph - N/A   Clear
3:15 PM 82.4 °F 86.3 °F 69.8 °F 66% 29.94 in 10.0 mi SSE 12.7 mph 18.4 mph N/A   Clear
3:35 PM 82.4 °F 86.3 °F 69.8 °F 66% 29.94 in 10.0 mi SSE 12.7 mph - N/A   Clear
3:55 PM 82.4 °F 86.3 °F 69.8 °F 66% 29.94 in 10.0 mi South 13.8 mph - N/A   Clear
4:15 PM 82.4 °F 86.3 °F 69.8 °F 66% 29.93 in 10.0 mi South 15.0 mph - N/A   Clear
4:35 PM 82.4 °F 86.3 °F 69.8 °F 66% 29.93 in 10.0 mi SSE 10.4 mph 18.4 mph N/A   Clear
4:55 PM 82.4 °F 87.2 °F 71.6 °F 70% 29.92 in 10.0 mi South 13.8 mph - N/A   Clear
5:15 PM 84.2 °F 89.6 °F 71.6 °F 66% 29.92 in 10.0 mi South 11.5 mph - N/A   Scattered Clouds
5:35 PM 84.2 °F 89.6 °F 71.6 °F 66% 29.91 in 10.0 mi South 10.4 mph - N/A   Partly Cloudy
5:55 PM 82.4 °F 87.2 °F 71.6 °F 70% 29.92 in 10.0 mi South 11.5 mph - N/A   Partly Cloudy
6:15 PM 84.2 °F 89.6 °F 71.6 °F 66% 29.91 in 10.0 mi South 11.5 mph 17.3 mph N/A   Scattered Clouds
6:35 PM 82.4 °F 87.2 °F 71.6 °F 70% 29.91 in 10.0 mi South 10.4 mph - N/A   Mostly Cloudy
6:55 PM 82.4 °F 87.2 °F 71.6 °F 70% 29.91 in 10.0 mi South 11.5 mph - N/A   Mostly Cloudy
7:15 PM 80.6 °F 85.4 °F 73.4 °F 79% 29.91 in 10.0 mi SSE 10.4 mph - N/A   Overcast
7:35 PM 80.6 °F 85.4 °F 73.4 °F 79% 29.91 in 10.0 mi SSE 9.2 mph - N/A   Overcast
7:55 PM 80.6 °F 85.4 °F 73.4 °F 79% 29.90 in 10.0 mi SSE 10.4 mph - N/A   Mostly Cloudy
8:15 PM 80.6 °F 85.4 °F 73.4 °F 79% 29.90 in 10.0 mi SSE 10.4 mph - N/A   Scattered Clouds
8:35 PM 78.8 °F - 73.4 °F 83% 29.89 in 10.0 mi SSE 11.5 mph - N/A   Clear
8:55 PM 77.0 °F - 73.4 °F 89% 29.90 in 10.0 mi SSE 8.1 mph 15.0 mph N/A   Clear
9:15 PM 77.0 °F - 73.4 °F 89% 29.90 in 10.0 mi SE 6.9 mph - N/A   Scattered Clouds
9:35 PM 75.2 °F - 73.4 °F 94% 29.90 in 10.0 mi SSE 8.1 mph - N/A   Overcast
9:55 PM 75.2 °F - 73.4 °F 94% 29.91 in 10.0 mi SSE 5.8 mph - N/A   Overcast
10:15 PM 73.4 °F - 71.6 °F 94% 29.91 in 10.0 mi SE 5.8 mph - N/A   Overcast
10:35 PM 73.4 °F - 71.6 °F 94% 29.91 in 10.0 mi SE 6.9 mph - N/A   Mostly Cloudy
10:55 PM 73.4 °F - 71.6 °F 94% 29.91 in 10.0 mi SE 8.1 mph - N/A   Partly Cloudy
11:15 PM 71.6 °F - 71.6 °F 100% 29.90 in 10.0 mi SE 8.1 mph - N/A   Partly Cloudy
11:35 PM 71.6 °F - 71.6 °F 100% 29.90 in 7.0 mi SSE 9.2 mph - N/A   Scattered Clouds
11:55 PM 71.6 °F - 71.6 °F 100% 29.90 in 7.0 mi SSE 9.2 mph - N/A   Mostly Cloudy